sensor_id;sensor_type;location;lat;lon;timestamp;temperature;humidity
17202;DHT22;8717;53.588;10.176;2023-01-30T00:00:32;2.80;99.90
17202;DHT22;8717;53.588;10.176;2023-01-30T00:02:59;2.80;99.90
17202;DHT22;8717;53.588;10.176;2023-01-30T00:05:25;2.80;99.90
17202;DHT22;8717;53.588;10.176;2023-01-30T00:07:52;2.90;99.90
17202;DHT22;8717;53.588;10.176;2023-01-30T00:10:19;2.90;99.90
17202;DHT22;8717;53.588;10.176;2023-01-30T00:12:45;2.90;99.90
17202;DHT22;8717;53.588;10.176;2023-01-30T00:15:14;2.90;99.90
17202;DHT22;8717;53.588;10.176;2023-01-30T00:17:40;2.90;99.90
17202;DHT22;8717;53.588;10.176;2023-01-30T00:20:08;2.90;99.90
17202;DHT22;8717;53.588;10.176;2023-01-30T00:22:36;2.90;99.90
17202;DHT22;8717;53.588;10.176;2023-01-30T00:25:04;2.90;99.90
17202;DHT22;8717;53.588;10.176;2023-01-30T00:27:31;3.00;99.90
17202;DHT22;8717;53.588;10.176;2023-01-30T00:29:58;3.00;99.90
17202;DHT22;8717;53.588;10.176;2023-01-30T00:32:26;3.00;99.90
17202;DHT22;8717;53.588;10.176;2023-01-30T00:34:55;3.00;99.90
17202;DHT22;8717;53.588;10.176;2023-01-30T00:37:27;3.10;99.90
17202;DHT22;8717;53.588;10.176;2023-01-30T00:39:56;3.10;99.90
17202;DHT22;8717;53.588;10.176;2023-01-30T00:42:26;3.10;99.90
17202;DHT22;8717;53.588;10.176;2023-01-30T00:45:11;3.10;99.90
17202;DHT22;8717;53.588;10.176;2023-01-30T00:47:57;3.10;99.90
17202;DHT22;8717;53.588;10.176;2023-01-30T00:50:25;3.10;99.90
17202;DHT22;8717;53.588;10.176;2023-01-30T00:53:07;3.20;99.90
17202;DHT22;8717;53.588;10.176;2023-01-30T00:55:34;3.20;99.90
17202;DHT22;8717;53.588;10.176;2023-01-30T00:58:00;3.20;99.90
17202;DHT22;8717;53.588;10.176;2023-01-30T01:00:27;3.20;99.90
17202;DHT22;8717;53.588;10.176;2023-01-30T01:02:54;3.20;99.90
17202;DHT22;8717;53.588;10.176;2023-01-30T01:05:22;3.30;99.90
17202;DHT22;8717;53.588;10.176;2023-01-30T01:07:49;3.30;99.90
17202;DHT22;8717;53.588;10.176;2023-01-30T01:10:16;3.30;99.90
17202;DHT22;8717;53.588;10.176;2023-01-30T01:12:44;3.40;99.90
17202;DHT22;8717;53.588;10.176;2023-01-30T01:15:11;3.40;99.90
17202;DHT22;8717;53.588;10.176;2023-01-30T01:17:39;3.40;99.90
17202;DHT22;8717;53.588;10.176;2023-01-30T01:20:07;3.50;99.90
17202;DHT22;8717;53.588;10.176;2023-01-30T01:22:35;3.50;99.90
17202;DHT22;8717;53.588;10.176;2023-01-30T01:25:03;3.50;99.90
17202;DHT22;8717;53.588;10.176;2023-01-30T01:27:31;3.50;99.90
17202;DHT22;8717;53.588;10.176;2023-01-30T01:29:58;3.50;99.90
17202;DHT22;8717;53.588;10.176;2023-01-30T01:32:25;3.50;99.90
17202;DHT22;8717;53.588;10.176;2023-01-30T01:34:52;3.60;99.90
17202;DHT22;8717;53.588;10.176;2023-01-30T01:37:19;3.60;99.90
17202;DHT22;8717;53.588;10.176;2023-01-30T01:39:47;3.60;99.90
17202;DHT22;8717;53.588;10.176;2023-01-30T01:42:42;3.60;99.90
17202;DHT22;8717;53.588;10.176;2023-01-30T01:45:16;3.60;99.90
17202;DHT22;8717;53.588;10.176;2023-01-30T01:47:48;3.60;99.90
17202;DHT22;8717;53.588;10.176;2023-01-30T01:50:21;3.70;99.90
17202;DHT22;8717;53.588;10.176;2023-01-30T01:52:50;3.70;99.90
17202;DHT22;8717;53.588;10.176;2023-01-30T01:55:23;3.70;99.90
17202;DHT22;8717;53.588;10.176;2023-01-30T01:57:53;3.70;99.90
17202;DHT22;8717;53.588;10.176;2023-01-30T02:00:22;3.70;99.90
17202;DHT22;8717;53.588;10.176;2023-01-30T02:02:53;3.70;99.90
17202;DHT22;8717;53.588;10.176;2023-01-30T02:05:23;3.70;99.90
17202;DHT22;8717;53.588;10.176;2023-01-30T02:07:53;3.70;99.90
17202;DHT22;8717;53.588;10.176;2023-01-30T02:10:30;3.80;99.90
17202;DHT22;8717;53.588;10.176;2023-01-30T02:12:58;3.70;99.90
17202;DHT22;8717;53.588;10.176;2023-01-30T02:15:24;3.80;99.90
17202;DHT22;8717;53.588;10.176;2023-01-30T02:17:53;3.80;99.90
17202;DHT22;8717;53.588;10.176;2023-01-30T02:20:26;3.80;99.90
17202;DHT22;8717;53.588;10.176;2023-01-30T02:26:24;3.80;99.90
17202;DHT22;8717;53.588;10.176;2023-01-30T02:29:22;3.80;99.90
17202;DHT22;8717;53.588;10.176;2023-01-30T02:32:02;3.90;99.90
17202;DHT22;8717;53.588;10.176;2023-01-30T02:34:40;4.00;99.90
17202;DHT22;8717;53.588;10.176;2023-01-30T02:37:16;3.90;99.90
17202;DHT22;8717;53.588;10.176;2023-01-30T02:39:53;3.90;99.90
17202;DHT22;8717;53.588;10.176;2023-01-30T02:42:28;3.90;99.90
17202;DHT22;8717;53.588;10.176;2023-01-30T02:45:01;3.90;99.90
17202;DHT22;8717;53.588;10.176;2023-01-30T02:47:35;4.00;99.90
17202;DHT22;8717;53.588;10.176;2023-01-30T02:50:09;4.00;99.90
17202;DHT22;8717;53.588;10.176;2023-01-30T02:52:38;4.00;99.90
17202;DHT22;8717;53.588;10.176;2023-01-30T02:55:08;4.00;99.90
17202;DHT22;8717;53.588;10.176;2023-01-30T02:57:36;4.00;99.90
17202;DHT22;8717;53.588;10.176;2023-01-30T03:00:04;4.10;99.90
17202;DHT22;8717;53.588;10.176;2023-01-30T03:02:44;4.00;99.90
17202;DHT22;8717;53.588;10.176;2023-01-30T03:05:30;4.10;99.90
17202;DHT22;8717;53.588;10.176;2023-01-30T03:08:10;4.10;99.90
17202;DHT22;8717;53.588;10.176;2023-01-30T03:10:46;4.10;99.90
17202;DHT22;8717;53.588;10.176;2023-01-30T03:13:19;4.20;99.90
17202;DHT22;8717;53.588;10.176;2023-01-30T03:15:58;4.20;99.90
17202;DHT22;8717;53.588;10.176;2023-01-30T03:18:27;4.20;99.90
17202;DHT22;8717;53.588;10.176;2023-01-30T03:20:54;4.20;99.90
17202;DHT22;8717;53.588;10.176;2023-01-30T03:23:21;4.20;99.90
17202;DHT22;8717;53.588;10.176;2023-01-30T03:25:48;4.20;99.90
17202;DHT22;8717;53.588;10.176;2023-01-30T03:28:17;4.30;99.90
17202;DHT22;8717;53.588;10.176;2023-01-30T03:30:48;4.30;99.90
17202;DHT22;8717;53.588;10.176;2023-01-30T03:33:15;4.40;99.90
17202;DHT22;8717;53.588;10.176;2023-01-30T03:35:47;4.40;99.90
17202;DHT22;8717;53.588;10.176;2023-01-30T03:38:14;4.40;99.90
17202;DHT22;8717;53.588;10.176;2023-01-30T03:40:41;4.40;99.90
17202;DHT22;8717;53.588;10.176;2023-01-30T03:43:08;4.50;99.90
17202;DHT22;8717;53.588;10.176;2023-01-30T03:45:36;4.50;99.90
17202;DHT22;8717;53.588;10.176;2023-01-30T03:48:03;4.50;99.90
17202;DHT22;8717;53.588;10.176;2023-01-30T03:50:31;4.50;99.90
17202;DHT22;8717;53.588;10.176;2023-01-30T03:53:00;4.50;99.90
17202;DHT22;8717;53.588;10.176;2023-01-30T03:55:28;4.60;99.90
17202;DHT22;8717;53.588;10.176;2023-01-30T03:57:56;4.60;99.90
17202;DHT22;8717;53.588;10.176;2023-01-30T04:00:28;4.60;99.90
17202;DHT22;8717;53.588;10.176;2023-01-30T04:02:57;4.60;99.90
17202;DHT22;8717;53.588;10.176;2023-01-30T04:05:24;4.60;99.90
17202;DHT22;8717;53.588;10.176;2023-01-30T04:07:56;4.70;99.90
17202;DHT22;8717;53.588;10.176;2023-01-30T04:10:25;4.70;99.90
17202;DHT22;8717;53.588;10.176;2023-01-30T04:12:52;4.70;99.90
17202;DHT22;8717;53.588;10.176;2023-01-30T04:15:20;4.70;99.90
17202;DHT22;8717;53.588;10.176;2023-01-30T04:17:53;4.70;99.90
17202;DHT22;8717;53.588;10.176;2023-01-30T04:20:35;4.70;99.90
17202;DHT22;8717;53.588;10.176;2023-01-30T04:23:02;4.80;99.90
17202;DHT22;8717;53.588;10.176;2023-01-30T04:25:30;4.80;99.90
17202;DHT22;8717;53.588;10.176;2023-01-30T04:28:00;4.80;99.90
17202;DHT22;8717;53.588;10.176;2023-01-30T04:30:31;4.70;99.90
17202;DHT22;8717;53.588;10.176;2023-01-30T04:33:21;4.70;99.90
17202;DHT22;8717;53.588;10.176;2023-01-30T04:35:51;4.70;99.90
17202;DHT22;8717;53.588;10.176;2023-01-30T04:38:19;4.60;99.90
17202;DHT22;8717;53.588;10.176;2023-01-30T04:40:52;4.60;99.90
17202;DHT22;8717;53.588;10.176;2023-01-30T04:43:23;4.60;99.90
17202;DHT22;8717;53.588;10.176;2023-01-30T04:46:09;4.50;99.90
17202;DHT22;8717;53.588;10.176;2023-01-30T04:48:36;4.50;99.90
17202;DHT22;8717;53.588;10.176;2023-01-30T04:51:04;4.50;99.90
17202;DHT22;8717;53.588;10.176;2023-01-30T04:53:31;4.40;99.90
17202;DHT22;8717;53.588;10.176;2023-01-30T04:55:59;4.40;99.90
17202;DHT22;8717;53.588;10.176;2023-01-30T04:58:26;4.40;99.90
17202;DHT22;8717;53.588;10.176;2023-01-30T05:00:53;4.40;99.90
17202;DHT22;8717;53.588;10.176;2023-01-30T05:03:20;4.40;99.90
17202;DHT22;8717;53.588;10.176;2023-01-30T05:05:47;4.40;99.90
17202;DHT22;8717;53.588;10.176;2023-01-30T05:08:14;4.50;99.90
17202;DHT22;8717;53.588;10.176;2023-01-30T05:10:41;4.50;99.90
17202;DHT22;8717;53.588;10.176;2023-01-30T05:13:09;4.50;99.90
17202;DHT22;8717;53.588;10.176;2023-01-30T05:15:38;4.50;99.90
17202;DHT22;8717;53.588;10.176;2023-01-30T05:18:06;4.50;99.90
17202;DHT22;8717;53.588;10.176;2023-01-30T05:20:33;4.50;99.90
17202;DHT22;8717;53.588;10.176;2023-01-30T05:22:59;4.50;99.90
17202;DHT22;8717;53.588;10.176;2023-01-30T05:25:26;4.60;99.90
17202;DHT22;8717;53.588;10.176;2023-01-30T05:27:53;4.60;99.90
17202;DHT22;8717;53.588;10.176;2023-01-30T05:30:23;4.60;99.90
17202;DHT22;8717;53.588;10.176;2023-01-30T05:32:53;4.70;99.90
17202;DHT22;8717;53.588;10.176;2023-01-30T05:35:19;4.70;99.90
17202;DHT22;8717;53.588;10.176;2023-01-30T05:37:49;4.70;99.90
17202;DHT22;8717;53.588;10.176;2023-01-30T05:40:16;4.70;99.90
17202;DHT22;8717;53.588;10.176;2023-01-30T05:42:43;4.70;99.90
17202;DHT22;8717;53.588;10.176;2023-01-30T05:45:10;4.80;99.90
17202;DHT22;8717;53.588;10.176;2023-01-30T05:47:38;4.80;99.90
17202;DHT22;8717;53.588;10.176;2023-01-30T05:50:05;4.80;99.90
17202;DHT22;8717;53.588;10.176;2023-01-30T05:52:32;4.80;99.90
17202;DHT22;8717;53.588;10.176;2023-01-30T05:54:59;4.80;99.90
17202;DHT22;8717;53.588;10.176;2023-01-30T05:57:26;4.80;99.90
17202;DHT22;8717;53.588;10.176;2023-01-30T05:59:52;4.80;99.90
17202;DHT22;8717;53.588;10.176;2023-01-30T06:02:19;4.80;99.90
17202;DHT22;8717;53.588;10.176;2023-01-30T06:04:47;4.80;99.90
17202;DHT22;8717;53.588;10.176;2023-01-30T06:07:14;4.80;99.90
17202;DHT22;8717;53.588;10.176;2023-01-30T06:09:40;4.70;99.90
17202;DHT22;8717;53.588;10.176;2023-01-30T06:12:08;4.80;99.90
17202;DHT22;8717;53.588;10.176;2023-01-30T06:14:35;4.70;99.90
17202;DHT22;8717;53.588;10.176;2023-01-30T06:17:01;4.70;99.90
17202;DHT22;8717;53.588;10.176;2023-01-30T06:19:28;4.60;99.90
17202;DHT22;8717;53.588;10.176;2023-01-30T06:21:57;4.60;99.90
17202;DHT22;8717;53.588;10.176;2023-01-30T06:24:24;4.60;99.90
17202;DHT22;8717;53.588;10.176;2023-01-30T06:26:50;4.60;99.90
17202;DHT22;8717;53.588;10.176;2023-01-30T06:29:17;4.60;99.90
17202;DHT22;8717;53.588;10.176;2023-01-30T06:31:44;4.60;99.90
17202;DHT22;8717;53.588;10.176;2023-01-30T06:34:11;4.60;99.90
17202;DHT22;8717;53.588;10.176;2023-01-30T06:36:38;4.60;99.90
17202;DHT22;8717;53.588;10.176;2023-01-30T06:39:06;4.50;99.90
17202;DHT22;8717;53.588;10.176;2023-01-30T06:41:33;4.40;99.90
17202;DHT22;8717;53.588;10.176;2023-01-30T06:44:00;4.40;99.90
17202;DHT22;8717;53.588;10.176;2023-01-30T06:46:29;4.40;99.90
17202;DHT22;8717;53.588;10.176;2023-01-30T06:48:56;4.30;99.90
17202;DHT22;8717;53.588;10.176;2023-01-30T06:51:22;4.30;99.90
17202;DHT22;8717;53.588;10.176;2023-01-30T06:53:51;4.20;99.90
17202;DHT22;8717;53.588;10.176;2023-01-30T06:56:20;4.20;99.90
17202;DHT22;8717;53.588;10.176;2023-01-30T06:58:46;4.10;99.90
17202;DHT22;8717;53.588;10.176;2023-01-30T07:01:13;4.10;99.90
17202;DHT22;8717;53.588;10.176;2023-01-30T07:03:40;4.10;99.90
17202;DHT22;8717;53.588;10.176;2023-01-30T07:06:07;4.10;99.90
17202;DHT22;8717;53.588;10.176;2023-01-30T07:08:33;4.00;99.90
17202;DHT22;8717;53.588;10.176;2023-01-30T07:11:03;4.10;99.90
17202;DHT22;8717;53.588;10.176;2023-01-30T07:13:31;4.00;99.90
17202;DHT22;8717;53.588;10.176;2023-01-30T07:15:58;4.00;99.90
17202;DHT22;8717;53.588;10.176;2023-01-30T07:18:34;4.00;99.90
17202;DHT22;8717;53.588;10.176;2023-01-30T07:21:00;3.90;99.90
17202;DHT22;8717;53.588;10.176;2023-01-30T07:23:29;3.90;99.90
17202;DHT22;8717;53.588;10.176;2023-01-30T07:25:56;3.90;99.90
17202;DHT22;8717;53.588;10.176;2023-01-30T07:28:25;3.80;99.90
17202;DHT22;8717;53.588;10.176;2023-01-30T07:30:53;3.80;99.90
17202;DHT22;8717;53.588;10.176;2023-01-30T07:33:20;3.80;99.90
17202;DHT22;8717;53.588;10.176;2023-01-30T07:35:47;3.80;99.90
17202;DHT22;8717;53.588;10.176;2023-01-30T07:38:13;3.80;99.90
17202;DHT22;8717;53.588;10.176;2023-01-30T07:40:40;3.80;99.90
17202;DHT22;8717;53.588;10.176;2023-01-30T07:43:09;3.90;99.90
17202;DHT22;8717;53.588;10.176;2023-01-30T07:45:39;3.90;99.90
17202;DHT22;8717;53.588;10.176;2023-01-30T07:48:09;3.90;99.90
17202;DHT22;8717;53.588;10.176;2023-01-30T07:50:36;4.00;99.90
17202;DHT22;8717;53.588;10.176;2023-01-30T07:53:03;4.10;99.90
17202;DHT22;8717;53.588;10.176;2023-01-30T07:55:30;4.10;99.90
17202;DHT22;8717;53.588;10.176;2023-01-30T07:58:02;4.30;99.90
17202;DHT22;8717;53.588;10.176;2023-01-30T08:00:28;4.30;99.90
17202;DHT22;8717;53.588;10.176;2023-01-30T08:02:55;4.30;99.90
17202;DHT22;8717;53.588;10.176;2023-01-30T08:05:24;4.40;99.90
17202;DHT22;8717;53.588;10.176;2023-01-30T08:07:58;4.50;99.90
17202;DHT22;8717;53.588;10.176;2023-01-30T08:10:25;4.50;99.90
17202;DHT22;8717;53.588;10.176;2023-01-30T08:12:52;4.50;99.90
17202;DHT22;8717;53.588;10.176;2023-01-30T08:15:19;4.50;99.90
17202;DHT22;8717;53.588;10.176;2023-01-30T08:17:52;4.60;99.90
17202;DHT22;8717;53.588;10.176;2023-01-30T08:20:20;4.60;99.90
17202;DHT22;8717;53.588;10.176;2023-01-30T08:22:48;4.60;99.90
17202;DHT22;8717;53.588;10.176;2023-01-30T08:25:14;4.70;99.90
17202;DHT22;8717;53.588;10.176;2023-01-30T08:27:41;4.60;99.90
17202;DHT22;8717;53.588;10.176;2023-01-30T08:30:10;4.60;99.90
17202;DHT22;8717;53.588;10.176;2023-01-30T08:32:37;4.60;99.90
17202;DHT22;8717;53.588;10.176;2023-01-30T08:35:04;4.60;99.90
17202;DHT22;8717;53.588;10.176;2023-01-30T08:37:31;4.50;99.90
17202;DHT22;8717;53.588;10.176;2023-01-30T08:39:59;4.50;99.90
17202;DHT22;8717;53.588;10.176;2023-01-30T08:42:26;4.50;99.90
17202;DHT22;8717;53.588;10.176;2023-01-30T08:44:52;4.50;99.90
17202;DHT22;8717;53.588;10.176;2023-01-30T08:47:19;4.50;99.90
17202;DHT22;8717;53.588;10.176;2023-01-30T08:49:46;4.60;99.90
17202;DHT22;8717;53.588;10.176;2023-01-30T08:52:13;4.70;99.90
17202;DHT22;8717;53.588;10.176;2023-01-30T08:54:39;4.70;99.90
17202;DHT22;8717;53.588;10.176;2023-01-30T08:57:07;4.70;99.90
17202;DHT22;8717;53.588;10.176;2023-01-30T08:59:34;4.80;99.90
17202;DHT22;8717;53.588;10.176;2023-01-30T09:02:02;4.80;99.90
17202;DHT22;8717;53.588;10.176;2023-01-30T09:04:29;4.80;99.90
17202;DHT22;8717;53.588;10.176;2023-01-30T09:06:58;4.90;99.90
17202;DHT22;8717;53.588;10.176;2023-01-30T09:09:25;5.00;99.90
17202;DHT22;8717;53.588;10.176;2023-01-30T09:11:51;5.20;99.90
17202;DHT22;8717;53.588;10.176;2023-01-30T09:14:19;5.50;99.90
17202;DHT22;8717;53.588;10.176;2023-01-30T09:16:46;5.70;99.90
17202;DHT22;8717;53.588;10.176;2023-01-30T09:19:21;5.90;99.90
17202;DHT22;8717;53.588;10.176;2023-01-30T09:21:48;6.00;99.90
17202;DHT22;8717;53.588;10.176;2023-01-30T09:24:15;6.10;99.90
17202;DHT22;8717;53.588;10.176;2023-01-30T09:26:42;6.10;99.90
17202;DHT22;8717;53.588;10.176;2023-01-30T09:29:09;6.10;99.90
17202;DHT22;8717;53.588;10.176;2023-01-30T09:31:37;6.10;99.90
17202;DHT22;8717;53.588;10.176;2023-01-30T09:34:04;6.10;99.90
17202;DHT22;8717;53.588;10.176;2023-01-30T09:36:33;6.10;99.90
17202;DHT22;8717;53.588;10.176;2023-01-30T09:39:04;6.10;99.90
17202;DHT22;8717;53.588;10.176;2023-01-30T09:41:52;6.20;99.90
17202;DHT22;8717;53.588;10.176;2023-01-30T09:44:41;6.30;99.90
17202;DHT22;8717;53.588;10.176;2023-01-30T09:47:11;6.50;99.90
17202;DHT22;8717;53.588;10.176;2023-01-30T09:49:49;6.70;99.90
17202;DHT22;8717;53.588;10.176;2023-01-30T09:52:26;6.80;99.90
17202;DHT22;8717;53.588;10.176;2023-01-30T09:55:12;7.00;99.90
17202;DHT22;8717;53.588;10.176;2023-01-30T09:57:41;7.00;99.90
17202;DHT22;8717;53.588;10.176;2023-01-30T10:00:12;7.10;99.90
17202;DHT22;8717;53.588;10.176;2023-01-30T10:02:49;7.10;99.90
17202;DHT22;8717;53.588;10.176;2023-01-30T10:05:17;7.10;99.90
17202;DHT22;8717;53.588;10.176;2023-01-30T10:07:53;7.00;99.90
17202;DHT22;8717;53.588;10.176;2023-01-30T10:10:37;7.00;99.90
17202;DHT22;8717;53.588;10.176;2023-01-30T10:13:23;6.80;99.90
17202;DHT22;8717;53.588;10.176;2023-01-30T10:15:53;6.60;99.90
17202;DHT22;8717;53.588;10.176;2023-01-30T10:18:39;6.40;99.90
17202;DHT22;8717;53.588;10.176;2023-01-30T10:21:16;6.20;99.90
17202;DHT22;8717;53.588;10.176;2023-01-30T10:24:00;6.00;99.90
17202;DHT22;8717;53.588;10.176;2023-01-30T10:26:29;5.90;99.90
17202;DHT22;8717;53.588;10.176;2023-01-30T10:28:59;5.70;99.90
17202;DHT22;8717;53.588;10.176;2023-01-30T10:31:31;5.60;99.90
17202;DHT22;8717;53.588;10.176;2023-01-30T10:34:03;5.40;99.90
17202;DHT22;8717;53.588;10.176;2023-01-30T10:36:35;5.30;99.90
17202;DHT22;8717;53.588;10.176;2023-01-30T10:39:14;5.20;99.90
17202;DHT22;8717;53.588;10.176;2023-01-30T10:41:50;5.10;99.90
17202;DHT22;8717;53.588;10.176;2023-01-30T10:44:21;5.00;99.90
17202;DHT22;8717;53.588;10.176;2023-01-30T10:49:49;5.00;99.90
17202;DHT22;8717;53.588;10.176;2023-01-30T10:52:24;5.10;99.90
17202;DHT22;8717;53.588;10.176;2023-01-30T10:55:02;5.20;99.90
17202;DHT22;8717;53.588;10.176;2023-01-30T10:57:41;5.30;99.90
17202;DHT22;8717;53.588;10.176;2023-01-30T11:00:21;5.40;99.90
17202;DHT22;8717;53.588;10.176;2023-01-30T11:03:00;5.50;99.90
17202;DHT22;8717;53.588;10.176;2023-01-30T11:05:39;5.60;99.90
17202;DHT22;8717;53.588;10.176;2023-01-30T11:08:16;5.60;99.90
17202;DHT22;8717;53.588;10.176;2023-01-30T11:10:43;5.50;99.90
17202;DHT22;8717;53.588;10.176;2023-01-30T11:13:15;5.30;99.90
17202;DHT22;8717;53.588;10.176;2023-01-30T11:15:44;5.20;99.90
17202;DHT22;8717;53.588;10.176;2023-01-30T11:18:12;5.00;99.90
17202;DHT22;8717;53.588;10.176;2023-01-30T11:20:42;4.80;99.90
17202;DHT22;8717;53.588;10.176;2023-01-30T11:23:23;4.70;99.90
17202;DHT22;8717;53.588;10.176;2023-01-30T11:25:53;4.50;99.90
17202;DHT22;8717;53.588;10.176;2023-01-30T11:28:20;4.40;99.90
17202;DHT22;8717;53.588;10.176;2023-01-30T11:30:53;4.30;99.90
17202;DHT22;8717;53.588;10.176;2023-01-30T11:33:23;4.20;99.90
17202;DHT22;8717;53.588;10.176;2023-01-30T11:35:57;4.10;99.90
17202;DHT22;8717;53.588;10.176;2023-01-30T11:38:27;4.00;99.90
17202;DHT22;8717;53.588;10.176;2023-01-30T11:41:09;4.00;99.90
17202;DHT22;8717;53.588;10.176;2023-01-30T11:43:39;3.90;99.90
17202;DHT22;8717;53.588;10.176;2023-01-30T11:46:07;3.80;99.90
17202;DHT22;8717;53.588;10.176;2023-01-30T11:48:44;3.80;99.90
17202;DHT22;8717;53.588;10.176;2023-01-30T11:51:15;3.80;99.90
17202;DHT22;8717;53.588;10.176;2023-01-30T11:53:44;3.80;99.90
17202;DHT22;8717;53.588;10.176;2023-01-30T11:56:15;3.80;99.90
17202;DHT22;8717;53.588;10.176;2023-01-30T11:58:43;3.80;99.90
17202;DHT22;8717;53.588;10.176;2023-01-30T12:01:15;3.90;99.90
17202;DHT22;8717;53.588;10.176;2023-01-30T12:03:47;4.10;99.90
17202;DHT22;8717;53.588;10.176;2023-01-30T12:06:31;4.10;99.90
17202;DHT22;8717;53.588;10.176;2023-01-30T12:08:59;4.20;99.90
17202;DHT22;8717;53.588;10.176;2023-01-30T12:11:29;4.30;99.90
17202;DHT22;8717;53.588;10.176;2023-01-30T12:14:08;4.40;99.90
17202;DHT22;8717;53.588;10.176;2023-01-30T12:16:48;4.50;99.90
17202;DHT22;8717;53.588;10.176;2023-01-30T12:19:28;4.60;99.90
17202;DHT22;8717;53.588;10.176;2023-01-30T12:22:03;4.90;99.90
17202;DHT22;8717;53.588;10.176;2023-01-30T12:24:38;5.00;99.90
17202;DHT22;8717;53.588;10.176;2023-01-30T12:27:12;5.10;99.90
17202;DHT22;8717;53.588;10.176;2023-01-30T12:29:50;5.20;99.90
17202;DHT22;8717;53.588;10.176;2023-01-30T12:32:21;5.30;99.90
17202;DHT22;8717;53.588;10.176;2023-01-30T12:34:50;5.30;99.90
17202;DHT22;8717;53.588;10.176;2023-01-30T12:37:30;5.20;99.90
17202;DHT22;8717;53.588;10.176;2023-01-30T12:40:03;5.00;99.90
17202;DHT22;8717;53.588;10.176;2023-01-30T12:42:51;4.90;99.90
17202;DHT22;8717;53.588;10.176;2023-01-30T12:45:22;4.70;99.90
17202;DHT22;8717;53.588;10.176;2023-01-30T12:48:04;4.50;99.90
17202;DHT22;8717;53.588;10.176;2023-01-30T12:50:42;4.30;99.90
17202;DHT22;8717;53.588;10.176;2023-01-30T12:53:25;4.20;99.90
17202;DHT22;8717;53.588;10.176;2023-01-30T12:56:13;4.00;99.90
17202;DHT22;8717;53.588;10.176;2023-01-30T12:58:45;3.90;99.90
17202;DHT22;8717;53.588;10.176;2023-01-30T13:01:22;3.80;99.90
17202;DHT22;8717;53.588;10.176;2023-01-30T13:03:56;3.80;99.90
17202;DHT22;8717;53.588;10.176;2023-01-30T13:06:40;3.80;99.90
17202;DHT22;8717;53.588;10.176;2023-01-30T13:09:24;3.80;99.90
17202;DHT22;8717;53.588;10.176;2023-01-30T13:12:02;3.90;99.90
17202;DHT22;8717;53.588;10.176;2023-01-30T13:14:35;3.90;99.90
17202;DHT22;8717;53.588;10.176;2023-01-30T13:17:12;4.00;99.90
17202;DHT22;8717;53.588;10.176;2023-01-30T13:19:46;4.10;99.90
17202;DHT22;8717;53.588;10.176;2023-01-30T13:22:18;4.20;99.90
17202;DHT22;8717;53.588;10.176;2023-01-30T13:24:56;4.30;99.90
17202;DHT22;8717;53.588;10.176;2023-01-30T13:27:26;4.40;99.90
17202;DHT22;8717;53.588;10.176;2023-01-30T13:29:54;4.50;99.90
17202;DHT22;8717;53.588;10.176;2023-01-30T13:32:32;4.60;99.90
17202;DHT22;8717;53.588;10.176;2023-01-30T13:35:00;4.60;99.90
17202;DHT22;8717;53.588;10.176;2023-01-30T13:37:32;4.70;99.90
17202;DHT22;8717;53.588;10.176;2023-01-30T13:40:10;4.80;99.90
17202;DHT22;8717;53.588;10.176;2023-01-30T13:42:44;4.90;99.90
17202;DHT22;8717;53.588;10.176;2023-01-30T13:45:16;5.00;99.90
17202;DHT22;8717;53.588;10.176;2023-01-30T13:47:51;5.10;99.90
17202;DHT22;8717;53.588;10.176;2023-01-30T13:50:34;5.10;99.90
17202;DHT22;8717;53.588;10.176;2023-01-30T13:53:06;5.10;99.90
17202;DHT22;8717;53.588;10.176;2023-01-30T13:55:39;5.10;99.90
17202;DHT22;8717;53.588;10.176;2023-01-30T13:58:14;5.00;99.90
17202;DHT22;8717;53.588;10.176;2023-01-30T14:00:53;4.90;99.90
17202;DHT22;8717;53.588;10.176;2023-01-30T14:03:27;4.80;99.90
17202;DHT22;8717;53.588;10.176;2023-01-30T14:06:04;4.70;99.90
17202;DHT22;8717;53.588;10.176;2023-01-30T14:08:38;4.70;99.90
17202;DHT22;8717;53.588;10.176;2023-01-30T14:11:32;4.60;99.90
17202;DHT22;8717;53.588;10.176;2023-01-30T14:14:03;4.60;99.90
17202;DHT22;8717;53.588;10.176;2023-01-30T14:16:41;4.60;99.90
17202;DHT22;8717;53.588;10.176;2023-01-30T14:19:29;4.50;99.90
17202;DHT22;8717;53.588;10.176;2023-01-30T14:22:01;4.60;99.90
17202;DHT22;8717;53.588;10.176;2023-01-30T14:24:29;4.60;99.90
17202;DHT22;8717;53.588;10.176;2023-01-30T14:27:21;4.60;99.90
17202;DHT22;8717;53.588;10.176;2023-01-30T14:29:55;4.60;99.90
17202;DHT22;8717;53.588;10.176;2023-01-30T14:32:49;4.70;99.90
17202;DHT22;8717;53.588;10.176;2023-01-30T14:35:22;4.80;99.90
17202;DHT22;8717;53.588;10.176;2023-01-30T14:38:03;4.80;99.90
17202;DHT22;8717;53.588;10.176;2023-01-30T14:40:36;4.90;99.90
17202;DHT22;8717;53.588;10.176;2023-01-30T14:48:55;5.00;99.90
17202;DHT22;8717;53.588;10.176;2023-01-30T14:51:28;5.00;99.90
17202;DHT22;8717;53.588;10.176;2023-01-30T14:53:59;5.10;99.90
17202;DHT22;8717;53.588;10.176;2023-01-30T14:56:40;5.00;99.90
17202;DHT22;8717;53.588;10.176;2023-01-30T14:59:16;5.10;99.90
17202;DHT22;8717;53.588;10.176;2023-01-30T15:02:05;5.10;99.90
17202;DHT22;8717;53.588;10.176;2023-01-30T15:04:41;5.10;99.90
17202;DHT22;8717;53.588;10.176;2023-01-30T15:07:12;5.10;99.90
17202;DHT22;8717;53.588;10.176;2023-01-30T15:09:44;5.20;99.90
17202;DHT22;8717;53.588;10.176;2023-01-30T15:12:43;5.20;99.90
17202;DHT22;8717;53.588;10.176;2023-01-30T15:15:19;5.20;99.90
17202;DHT22;8717;53.588;10.176;2023-01-30T15:18:04;5.20;99.90
17202;DHT22;8717;53.588;10.176;2023-01-30T15:20:46;5.20;99.90
17202;DHT22;8717;53.588;10.176;2023-01-30T15:23:35;5.20;99.90
17202;DHT22;8717;53.588;10.176;2023-01-30T15:26:19;5.20;99.90
17202;DHT22;8717;53.588;10.176;2023-01-30T15:28:54;5.10;99.90
17202;DHT22;8717;53.588;10.176;2023-01-30T15:31:24;5.10;99.90
17202;DHT22;8717;53.588;10.176;2023-01-30T15:33:53;5.10;99.90
17202;DHT22;8717;53.588;10.176;2023-01-30T15:36:26;5.10;99.90
17202;DHT22;8717;53.588;10.176;2023-01-30T15:38:59;5.10;99.90
17202;DHT22;8717;53.588;10.176;2023-01-30T15:41:27;5.10;99.90
17202;DHT22;8717;53.588;10.176;2023-01-30T15:44:25;5.10;99.90
17202;DHT22;8717;53.588;10.176;2023-01-30T15:46:59;5.10;99.90
17202;DHT22;8717;53.588;10.176;2023-01-30T15:49:51;5.10;99.90
17202;DHT22;8717;53.588;10.176;2023-01-30T15:52:21;5.10;99.90
17202;DHT22;8717;53.588;10.176;2023-01-30T15:54:51;5.10;99.90
17202;DHT22;8717;53.588;10.176;2023-01-30T15:57:22;5.10;99.90
17202;DHT22;8717;53.588;10.176;2023-01-30T15:59:52;5.10;99.90
17202;DHT22;8717;53.588;10.176;2023-01-30T16:02:25;5.10;99.90
17202;DHT22;8717;53.588;10.176;2023-01-30T16:05:13;5.10;99.90
17202;DHT22;8717;53.588;10.176;2023-01-30T16:07:40;5.10;99.90
17202;DHT22;8717;53.588;10.176;2023-01-30T16:10:11;5.10;99.90
17202;DHT22;8717;53.588;10.176;2023-01-30T16:12:38;5.00;99.90
17202;DHT22;8717;53.588;10.176;2023-01-30T16:15:11;5.00;99.90
17202;DHT22;8717;53.588;10.176;2023-01-30T16:17:38;5.00;99.90
17202;DHT22;8717;53.588;10.176;2023-01-30T16:20:12;5.00;99.90
17202;DHT22;8717;53.588;10.176;2023-01-30T16:22:42;5.00;99.90
17202;DHT22;8717;53.588;10.176;2023-01-30T16:25:17;5.00;99.90